createdAt,value
2019-03-18T00:00:27.705Z,18.40
2019-03-18T00:02:56.383Z,21.63
2019-03-18T00:05:25.017Z,20.63
2019-03-18T00:07:53.644Z,20.70
2019-03-18T00:10:22.318Z,20.67
2019-03-18T00:12:52.164Z,20.53
2019-03-18T00:15:21.174Z,20.07
2019-03-18T00:17:49.799Z,19.17
2019-03-18T00:20:18.484Z,20.47
2019-03-18T00:22:47.048Z,20.13
2019-03-18T00:25:16.193Z,18.70
2019-03-18T00:27:44.875Z,19.37
2019-03-18T00:30:15.477Z,18.87
2019-03-18T00:32:44.034Z,18.57
2019-03-18T00:35:12.673Z,18.73
2019-03-18T00:37:41.242Z,18.30
2019-03-18T00:40:14.389Z,19.53
2019-03-18T00:42:43.041Z,20.10
2019-03-18T00:45:15.062Z,21.40
2019-03-18T00:47:42.083Z,24.37
2019-03-18T00:50:15.115Z,27.20
2019-03-18T00:52:43.995Z,30.30
2019-03-18T00:55:12.900Z,32.53
2019-03-18T00:57:41.504Z,29.00
2019-03-18T01:00:15.106Z,27.17
2019-03-18T01:02:43.670Z,25.23
2019-03-18T01:05:12.309Z,29.23
2019-03-18T01:07:41.008Z,27.40
2019-03-18T01:10:14.403Z,17.57
2019-03-18T01:12:43.036Z,15.77
2019-03-18T01:15:12.109Z,15.90
2019-03-18T01:17:40.749Z,19.00
2019-03-18T01:20:11.423Z,17.63
2019-03-18T01:22:40.046Z,17.33
2019-03-18T01:25:10.046Z,18.23
2019-03-18T01:27:38.745Z,19.30
2019-03-18T01:30:12.822Z,19.37
2019-03-18T01:32:41.505Z,18.30
2019-03-18T01:35:10.929Z,16.67
2019-03-18T01:37:39.599Z,22.30
2019-03-18T01:40:12.238Z,24.60
2019-03-18T01:42:40.917Z,20.87
2019-03-18T01:45:10.549Z,22.57
2019-03-18T01:47:39.220Z,24.40
2019-03-18T01:50:12.823Z,26.57
2019-03-18T01:52:41.488Z,22.70
2019-03-18T01:55:10.189Z,20.60
2019-03-18T01:57:38.744Z,20.77
2019-03-18T02:00:10.622Z,19.60
2019-03-18T02:02:39.285Z,20.40
2019-03-18T02:05:09.513Z,20.13
2019-03-18T02:07:38.071Z,24.80
2019-03-18T02:10:15.257Z,17.73
2019-03-18T02:12:43.907Z,15.53
2019-03-18T02:15:15.799Z,15.80
2019-03-18T02:17:44.442Z,17.57
2019-03-18T02:20:15.321Z,19.27
2019-03-18T02:22:43.993Z,16.23
2019-03-18T02:25:12.628Z,16.10
2019-03-18T02:27:41.272Z,17.20
2019-03-18T02:30:19.659Z,18.20
2019-03-18T02:32:48.350Z,17.83
2019-03-18T02:35:16.980Z,18.80
2019-03-18T02:37:45.570Z,21.07
2019-03-18T02:40:14.439Z,20.83
2019-03-18T02:42:43.062Z,23.27
2019-03-18T02:45:12.144Z,23.57
2019-03-18T02:47:40.827Z,19.67
2019-03-18T02:50:10.561Z,26.33
2019-03-18T02:52:39.289Z,23.13
2019-03-18T02:55:09.157Z,23.67
2019-03-18T02:57:37.781Z,23.60
2019-03-18T03:00:14.516Z,23.33
2019-03-18T03:02:43.126Z,22.87
2019-03-18T03:05:13.103Z,23.70
2019-03-18T03:07:41.630Z,21.90
2019-03-18T03:10:12.510Z,22.10
2019-03-18T03:12:41.184Z,23.10
2019-03-18T03:15:11.924Z,24.57
2019-03-18T03:17:40.557Z,25.67
2019-03-18T03:20:10.592Z,26.37
2019-03-18T03:22:39.194Z,26.80
2019-03-18T03:25:09.034Z,25.00
2019-03-18T03:27:37.676Z,22.97
2019-03-18T03:30:11.606Z,24.17
2019-03-18T03:32:40.121Z,24.27
2019-03-18T03:35:08.759Z,22.47
2019-03-18T03:37:37.349Z,22.73
2019-03-18T03:40:07.980Z,25.03
2019-03-18T03:42:36.598Z,23.60
2019-03-18T03:45:07.266Z,23.43
2019-03-18T03:47:35.862Z,22.10
2019-03-18T03:50:05.792Z,18.33
2019-03-18T03:52:34.420Z,19.97
2019-03-18T03:55:03.101Z,18.80
2019-03-18T03:57:31.775Z,20.70
2019-03-18T04:00:00.719Z,19.73
2019-03-18T04:02:29.407Z,21.53
2019-03-18T04:04:58.095Z,19.70
2019-03-18T04:07:26.660Z,17.70
2019-03-18T04:10:01.085Z,16.50
2019-03-18T04:12:29.765Z,15.97
2019-03-18T04:14:58.328Z,16.40
2019-03-18T04:17:26.928Z,16.00
2019-03-18T04:19:55.553Z,16.50
2019-03-18T04:22:24.157Z,17.43
2019-03-18T04:24:52.686Z,18.37
2019-03-18T04:27:24.540Z,17.67
2019-03-18T04:29:51.705Z,18.80
2019-03-18T04:32:20.242Z,16.67
2019-03-18T04:34:48.794Z,15.97
2019-03-18T04:37:17.327Z,15.57
2019-03-18T04:39:45.890Z,15.70
2019-03-18T04:42:14.490Z,14.57
2019-03-18T04:44:43.102Z,15.20
2019-03-18T04:47:14.575Z,15.37
2019-03-18T04:49:41.967Z,15.60
2019-03-18T04:52:10.606Z,15.77
2019-03-18T04:54:39.235Z,14.63
2019-03-18T04:57:07.844Z,15.30
2019-03-18T04:59:36.447Z,13.60
2019-03-18T05:02:05.122Z,13.00
2019-03-18T05:04:33.700Z,11.40
2019-03-18T05:07:02.288Z,11.20
2019-03-18T05:09:30.922Z,11.47
2019-03-18T05:11:59.526Z,11.10
2019-03-18T05:14:28.096Z,12.47
2019-03-18T05:16:56.738Z,12.43
2019-03-18T05:19:25.227Z,12.07
2019-03-18T05:21:53.864Z,12.67
2019-03-18T05:24:22.507Z,12.97
2019-03-18T05:26:51.077Z,12.33
2019-03-18T05:29:19.728Z,12.40
2019-03-18T05:31:48.227Z,13.93
2019-03-18T05:34:16.777Z,15.53
2019-03-18T05:36:45.352Z,15.97
2019-03-18T05:39:13.847Z,15.93
2019-03-18T05:41:42.530Z,17.07
2019-03-18T05:44:11.137Z,16.97
2019-03-18T05:46:39.743Z,24.87
2019-03-18T05:49:08.277Z,19.40
2019-03-18T05:51:37.066Z,18.07
2019-03-18T05:54:05.626Z,14.83
2019-03-18T05:56:34.327Z,11.37
2019-03-18T05:59:02.815Z,11.17
2019-03-18T06:01:31.667Z,12.47
2019-03-18T06:04:00.738Z,11.47
2019-03-18T06:06:29.528Z,11.57
2019-03-18T06:08:58.247Z,12.87
2019-03-18T06:11:26.822Z,11.87
2019-03-18T06:13:56.700Z,12.20
2019-03-18T06:16:28.535Z,11.73
2019-03-18T06:19:00.082Z,12.37
2019-03-18T06:21:27.695Z,12.50
2019-03-18T06:23:56.386Z,13.73
2019-03-18T06:26:25.102Z,12.60
2019-03-18T06:28:53.804Z,12.80
2019-03-18T06:31:22.473Z,11.00
2019-03-18T06:33:51.178Z,11.83
2019-03-18T06:36:20.175Z,10.00
2019-03-18T06:38:48.849Z,11.30
2019-03-18T06:41:17.613Z,9.80
2019-03-18T06:43:50.978Z,7.97
2019-03-18T06:46:20.033Z,10.57
2019-03-18T06:48:52.629Z,9.57
2019-03-18T06:51:21.489Z,10.23
2019-03-18T06:53:50.292Z,10.87
2019-03-18T06:56:19.383Z,10.10
2019-03-18T06:58:48.330Z,10.13
2019-03-18T07:01:17.542Z,10.33
2019-03-18T07:03:46.133Z,9.17
2019-03-18T07:06:15.513Z,9.50
2019-03-18T07:08:44.175Z,9.20
2019-03-18T07:11:12.663Z,8.87
2019-03-18T07:13:41.290Z,9.10
2019-03-18T07:16:09.785Z,8.83
2019-03-18T07:18:38.440Z,7.40
2019-03-18T07:21:07.771Z,8.37
2019-03-18T07:23:37.499Z,7.93
2019-03-18T07:26:06.155Z,8.13
2019-03-18T07:28:34.796Z,8.00
2019-03-18T07:31:03.351Z,9.67
2019-03-18T07:33:32.326Z,7.53
2019-03-18T07:36:00.949Z,8.10
2019-03-18T07:38:29.498Z,9.00
2019-03-18T07:40:59.239Z,8.17
2019-03-18T07:43:29.226Z,7.95
2019-03-18T07:45:57.819Z,7.05
2019-03-18T07:48:31.264Z,7.20
2019-03-18T07:50:57.508Z,7.28
2019-03-18T07:53:26.068Z,7.85
2019-03-18T07:55:54.953Z,7.10
2019-03-18T07:58:23.642Z,7.35
2019-03-18T08:00:52.415Z,9.47
2019-03-18T08:03:22.092Z,9.23
2019-03-18T08:05:50.797Z,16.45
2019-03-18T08:08:19.567Z,13.00
2019-03-18T08:10:48.092Z,10.03
2019-03-18T08:13:16.769Z,7.65
2019-03-18T08:15:45.504Z,6.97
2019-03-18T08:18:17.729Z,8.08
2019-03-18T08:20:46.387Z,7.95
2019-03-18T08:23:14.879Z,7.70
2019-03-18T08:25:43.413Z,6.90
2019-03-18T08:28:14.619Z,7.60
2019-03-18T08:30:43.283Z,6.17
2019-03-18T08:33:11.770Z,7.37
2019-03-18T08:35:40.303Z,7.25
2019-03-18T08:38:08.791Z,9.93
2019-03-18T08:40:37.405Z,7.53
2019-03-18T08:43:05.966Z,6.53
2019-03-18T08:45:34.561Z,6.15
2019-03-18T08:48:03.105Z,5.50
2019-03-18T08:50:31.705Z,6.37
2019-03-18T08:53:00.369Z,5.75
2019-03-18T08:55:29.183Z,5.33
2019-03-18T08:57:57.891Z,5.55
2019-03-18T09:00:26.579Z,4.83
2019-03-18T09:02:56.470Z,6.22
2019-03-18T09:05:29.330Z,4.60
2019-03-18T09:07:58.047Z,5.05
2019-03-18T09:10:26.776Z,4.78
2019-03-18T09:12:55.576Z,5.37
2019-03-18T09:15:24.223Z,5.17
2019-03-18T09:17:52.999Z,5.60
2019-03-18T09:20:21.723Z,5.70
2019-03-18T09:22:50.386Z,6.20
2019-03-18T09:25:18.988Z,5.40
2019-03-18T09:27:47.666Z,6.10
2019-03-18T09:30:20.928Z,4.65
2019-03-18T09:32:49.576Z,5.35
2019-03-18T09:35:18.265Z,4.55
2019-03-18T09:37:46.974Z,4.42
2019-03-18T09:40:17.632Z,4.33
2019-03-18T09:42:50.099Z,4.78
2019-03-18T09:45:19.368Z,4.72
2019-03-18T09:47:48.024Z,4.47
2019-03-18T09:50:16.957Z,4.05
2019-03-18T09:52:45.600Z,4.70
2019-03-18T09:55:14.226Z,5.65
2019-03-18T09:57:45.934Z,6.12
2019-03-18T10:00:15.929Z,6.08
2019-03-18T10:02:44.645Z,6.35
2019-03-18T10:05:15.957Z,6.58
2019-03-18T10:07:45.114Z,12.07
2019-03-18T10:10:14.451Z,5.47
2019-03-18T10:12:43.123Z,5.90
2019-03-18T10:15:16.689Z,5.30
2019-03-18T10:17:48.323Z,5.70
2019-03-18T10:20:16.941Z,5.92
2019-03-18T10:22:45.625Z,4.25
2019-03-18T10:25:14.957Z,5.33
2019-03-18T10:27:43.575Z,5.75
2019-03-18T10:30:15.917Z,3.95
2019-03-18T10:32:44.536Z,3.50
2019-03-18T10:35:13.302Z,3.35
2019-03-18T10:37:41.936Z,4.10
2019-03-18T10:40:16.768Z,4.03
2019-03-18T10:42:45.395Z,4.62
2019-03-18T10:45:14.662Z,3.98
2019-03-18T10:47:43.530Z,3.55
2019-03-18T10:50:15.858Z,4.10
2019-03-18T10:52:44.474Z,6.50
2019-03-18T10:55:13.206Z,4.58
2019-03-18T10:57:41.831Z,4.35
2019-03-18T11:00:15.911Z,4.10
2019-03-18T11:02:45.198Z,3.90
2019-03-18T11:05:14.675Z,4.50
2019-03-18T11:07:43.427Z,3.92
2019-03-18T11:10:13.620Z,3.83
2019-03-18T11:12:42.403Z,4.25
2019-03-18T11:15:21.062Z,4.37
2019-03-18T11:17:49.718Z,4.75
2019-03-18T11:20:18.438Z,5.87
2019-03-18T11:22:47.169Z,6.85
2019-03-18T11:25:17.867Z,5.80
2019-03-18T11:27:46.485Z,4.60
2019-03-18T11:30:16.531Z,4.45
2019-03-18T11:32:45.155Z,5.35
2019-03-18T11:35:13.787Z,3.92
2019-03-18T11:37:42.448Z,3.87
2019-03-18T11:40:14.142Z,2.98
2019-03-18T11:42:42.786Z,3.00
2019-03-18T11:45:13.063Z,3.12
2019-03-18T11:47:41.702Z,3.00
2019-03-18T11:50:14.404Z,2.75
2019-03-18T11:52:45.421Z,3.25
2019-03-18T11:55:16.046Z,3.30
2019-03-18T11:57:44.727Z,3.33
2019-03-18T12:00:16.457Z,6.35
2019-03-18T12:02:48.221Z,3.00
2019-03-18T12:05:25.575Z,3.10
2019-03-18T12:07:56.021Z,3.12
2019-03-18T12:10:25.871Z,2.55
2019-03-18T12:12:55.036Z,2.62
2019-03-18T12:15:27.684Z,2.87
2019-03-18T12:17:59.340Z,2.52
2019-03-18T12:20:28.108Z,2.40
2019-03-18T12:22:59.509Z,4.17
2019-03-18T12:25:27.999Z,3.42
2019-03-18T12:27:56.612Z,2.70
2019-03-18T12:30:26.575Z,3.67
2019-03-18T12:32:55.173Z,5.08
2019-03-18T12:35:23.800Z,3.52
2019-03-18T12:37:52.506Z,2.87
2019-03-18T12:40:22.551Z,3.05
2019-03-18T12:42:51.299Z,3.22
2019-03-18T12:45:22.978Z,4.05
2019-03-18T12:47:51.563Z,2.45
2019-03-18T12:50:38.556Z,2.70
2019-03-18T12:52:51.822Z,2.58
2019-03-18T12:55:20.563Z,2.55
2019-03-18T12:57:49.385Z,2.50
2019-03-18T13:00:22.773Z,2.80
2019-03-18T13:02:51.436Z,5.37
2019-03-18T13:05:20.108Z,3.33
2019-03-18T13:07:48.658Z,4.28
2019-03-18T13:10:21.267Z,3.58
2019-03-18T13:12:48.791Z,3.30
2019-03-18T13:15:19.048Z,2.30
2019-03-18T13:17:47.856Z,2.40
2019-03-18T13:20:18.074Z,2.20
2019-03-18T13:22:46.828Z,2.12
2019-03-18T13:25:15.580Z,2.30
2019-03-18T13:27:44.244Z,2.98
2019-03-18T13:30:23.948Z,2.90
2019-03-18T13:32:52.621Z,2.37
2019-03-18T13:35:21.240Z,3.02
2019-03-18T13:37:49.982Z,3.00
2019-03-18T13:40:19.054Z,2.95
2019-03-18T13:42:47.721Z,2.87
2019-03-18T13:45:21.045Z,2.67
2019-03-18T13:47:49.943Z,2.67
2019-03-18T13:50:25.097Z,2.75
2019-03-18T13:52:59.769Z,3.33
2019-03-18T13:55:31.843Z,2.67
2019-03-18T13:58:00.065Z,3.17
2019-03-18T14:00:31.097Z,3.02
2019-03-18T14:03:00.051Z,3.77
2019-03-18T14:05:28.759Z,3.25
2019-03-18T14:08:00.747Z,2.72
2019-03-18T14:10:27.709Z,3.40
2019-03-18T14:12:56.427Z,2.40
2019-03-18T14:15:25.661Z,3.05
2019-03-18T14:17:54.309Z,3.15
2019-03-18T14:20:27.016Z,3.30
2019-03-18T14:22:55.634Z,3.00
2019-03-18T14:25:24.267Z,2.60
2019-03-18T14:27:52.754Z,2.98
2019-03-18T14:30:24.292Z,2.52
2019-03-18T14:32:52.970Z,3.15
2019-03-18T14:35:22.088Z,3.95
2019-03-18T14:37:50.918Z,3.90
2019-03-18T14:40:23.870Z,2.80
2019-03-18T14:42:52.350Z,3.62
2019-03-18T14:45:21.895Z,4.10
2019-03-18T14:47:50.520Z,3.10
2019-03-18T14:50:19.651Z,3.52
2019-03-18T14:52:48.282Z,3.90
2019-03-18T14:55:18.784Z,2.83
2019-03-18T14:57:47.511Z,3.02
2019-03-18T15:00:29.372Z,3.05
2019-03-18T15:03:00.864Z,2.98
2019-03-18T15:05:29.492Z,3.05
2019-03-18T15:07:58.066Z,2.75
2019-03-18T15:10:32.722Z,2.10
2019-03-18T15:13:01.212Z,2.35
2019-03-18T15:15:29.882Z,2.72
2019-03-18T15:17:58.498Z,3.17
2019-03-18T15:20:28.071Z,2.12
2019-03-18T15:22:56.742Z,2.08
2019-03-18T15:25:26.874Z,2.67
2019-03-18T15:27:55.609Z,2.70
2019-03-18T15:30:24.168Z,2.67
2019-03-18T15:32:52.834Z,2.62
2019-03-18T15:35:21.394Z,2.87
2019-03-18T15:37:50.081Z,3.22
2019-03-18T15:40:23.610Z,4.50
2019-03-18T15:42:52.237Z,4.10
2019-03-18T15:45:23.971Z,4.55
2019-03-18T15:47:52.612Z,5.03
2019-03-18T15:50:25.510Z,3.85
2019-03-18T15:52:54.199Z,3.83
2019-03-18T15:55:24.276Z,3.37
2019-03-18T15:57:53.289Z,2.77
2019-03-18T16:00:27.787Z,2.33
2019-03-18T16:02:56.394Z,2.90
2019-03-18T16:05:24.953Z,2.60
2019-03-18T16:07:53.514Z,2.95
2019-03-18T16:10:22.279Z,2.87
2019-03-18T16:12:50.909Z,1.98
2019-03-18T16:15:19.537Z,1.82
2019-03-18T16:17:48.223Z,2.65
2019-03-18T16:20:22.166Z,2.55
2019-03-18T16:22:50.735Z,2.12
2019-03-18T16:25:19.439Z,2.22
2019-03-18T16:27:48.163Z,2.50
2019-03-18T16:30:18.743Z,1.93
2019-03-18T16:32:47.368Z,2.17
2019-03-18T16:35:16.828Z,2.63
2019-03-18T16:37:45.661Z,3.13
2019-03-18T16:40:21.232Z,4.47
2019-03-18T16:42:49.735Z,6.83
2019-03-18T16:45:21.736Z,9.53
2019-03-18T16:47:50.387Z,13.37
2019-03-18T16:50:21.923Z,11.87
2019-03-18T16:52:50.485Z,12.53
2019-03-18T16:55:19.072Z,11.87
2019-03-18T16:57:47.699Z,13.07
2019-03-18T17:00:27.039Z,14.63
2019-03-18T17:02:55.683Z,15.13
2019-03-18T17:05:24.391Z,15.17
2019-03-18T17:07:54.319Z,15.07
2019-03-18T17:10:26.070Z,15.33
2019-03-18T17:12:54.668Z,21.93
2019-03-18T17:15:23.633Z,12.00
2019-03-18T17:17:52.114Z,15.63
2019-03-18T17:20:20.677Z,12.83
2019-03-18T17:22:50.334Z,12.23
2019-03-18T17:25:30.759Z,11.97
2019-03-18T17:27:59.330Z,14.77
2019-03-18T17:30:27.903Z,18.63
2019-03-18T17:32:56.547Z,17.67
2019-03-18T17:35:25.281Z,15.97
2019-03-18T17:37:53.803Z,14.47
2019-03-18T17:40:22.430Z,11.77
2019-03-18T17:42:51.041Z,11.93
2019-03-18T17:45:19.862Z,9.93
2019-03-18T17:47:48.530Z,11.83
2019-03-18T17:50:23.025Z,14.93
2019-03-18T17:53:01.710Z,15.53
2019-03-18T17:55:21.976Z,12.93
2019-03-18T17:57:50.596Z,13.77
2019-03-18T18:00:24.011Z,12.90
2019-03-18T18:02:53.021Z,10.97
2019-03-18T18:05:24.365Z,9.07
2019-03-18T18:07:53.040Z,11.13
2019-03-18T18:10:21.604Z,11.83
2019-03-18T18:12:50.161Z,11.50
2019-03-18T18:15:18.784Z,11.60
2019-03-18T18:17:47.347Z,12.30
2019-03-18T18:20:16.319Z,15.27
2019-03-18T18:22:44.955Z,17.83
2019-03-18T18:25:14.453Z,19.57
2019-03-18T18:27:42.956Z,17.63
2019-03-18T18:30:13.441Z,20.50
2019-03-18T18:32:42.061Z,19.17
2019-03-18T18:35:11.596Z,19.37
2019-03-18T18:37:43.107Z,16.80
2019-03-18T18:40:22.931Z,13.80
2019-03-18T18:42:51.568Z,9.77
2019-03-18T18:45:21.382Z,13.03
2019-03-18T18:47:50.126Z,10.73
2019-03-18T18:50:18.879Z,12.33
2019-03-18T18:52:47.481Z,11.93
2019-03-18T18:55:16.126Z,11.93
2019-03-18T18:57:44.799Z,12.30
2019-03-18T19:00:16.128Z,11.27
2019-03-18T19:02:44.797Z,12.10
2019-03-18T19:05:14.577Z,13.17
2019-03-18T19:07:43.687Z,14.70
2019-03-18T19:10:14.401Z,10.77
2019-03-18T19:12:43.079Z,11.77
2019-03-18T19:15:26.867Z,10.87
2019-03-18T19:17:55.555Z,12.33
2019-03-18T19:20:24.188Z,11.30
2019-03-18T19:22:52.895Z,10.40
2019-03-18T19:25:21.594Z,10.60
2019-03-18T19:27:50.205Z,9.60
2019-03-18T19:30:23.339Z,10.77
2019-03-18T19:32:52.120Z,10.30
2019-03-18T19:35:20.772Z,10.57
2019-03-18T19:37:51.964Z,10.67
2019-03-18T19:40:22.551Z,13.47
2019-03-18T19:42:51.177Z,13.63
2019-03-18T19:45:19.819Z,13.20
2019-03-18T19:47:48.461Z,13.53
2019-03-18T19:50:24.921Z,13.13
2019-03-18T19:52:53.548Z,13.47
2019-03-18T19:55:22.196Z,12.90
2019-03-18T19:57:50.885Z,12.37
2019-03-18T20:00:29.667Z,13.70
2019-03-18T20:02:58.306Z,13.70
2019-03-18T20:05:26.949Z,18.40
2019-03-18T20:07:55.559Z,34.80
2019-03-18T20:10:24.202Z,31.07
2019-03-18T20:12:52.828Z,16.03
2019-03-18T20:15:21.468Z,15.17
2019-03-18T20:17:50.400Z,14.97
2019-03-18T20:20:23.235Z,15.90
2019-03-18T20:22:51.889Z,15.87
2019-03-18T20:25:20.542Z,21.30
2019-03-18T20:27:49.175Z,25.70
2019-03-18T20:30:20.768Z,22.87
2019-03-18T20:32:49.405Z,13.83
2019-03-18T20:35:19.241Z,13.93
2019-03-18T20:37:47.920Z,9.97
2019-03-18T20:40:17.293Z,9.43
2019-03-18T20:42:45.972Z,8.73
2019-03-18T20:45:19.521Z,9.20
2019-03-18T20:47:48.212Z,9.70
2019-03-18T20:50:18.809Z,8.93
2019-03-18T20:52:47.434Z,9.10
2019-03-18T20:55:17.218Z,8.77
2019-03-18T20:57:45.885Z,8.87
2019-03-18T21:00:21.280Z,10.27
2019-03-18T21:02:49.977Z,8.73
2019-03-18T21:05:18.603Z,8.83
2019-03-18T21:07:47.280Z,8.83
2019-03-18T21:10:19.196Z,16.93
2019-03-18T21:12:47.795Z,17.07
2019-03-18T21:15:17.194Z,16.97
2019-03-18T21:17:45.834Z,19.80
2019-03-18T21:20:22.820Z,13.50
2019-03-18T21:22:51.451Z,11.83
2019-03-18T21:25:20.134Z,15.80
2019-03-18T21:27:48.762Z,14.63
2019-03-18T21:30:18.808Z,14.03
2019-03-18T21:32:47.449Z,13.30
2019-03-18T21:35:16.069Z,12.13
2019-03-18T21:37:44.747Z,13.60
2019-03-18T21:40:14.770Z,12.60
2019-03-18T21:42:43.337Z,13.33
2019-03-18T21:45:14.520Z,12.90
2019-03-18T21:47:43.098Z,14.37
2019-03-18T21:50:13.422Z,13.77
2019-03-18T21:52:42.065Z,13.63
2019-03-18T21:55:10.702Z,13.47
2019-03-18T21:57:39.380Z,13.93
2019-03-18T22:00:16.417Z,13.60
2019-03-18T22:02:45.059Z,14.00
2019-03-18T22:05:13.757Z,13.53
2019-03-18T22:07:42.361Z,14.47
2019-03-18T22:10:12.893Z,15.20
2019-03-18T22:12:41.567Z,15.37
2019-03-18T22:15:11.911Z,15.57
2019-03-18T22:17:40.574Z,14.70
2019-03-18T22:20:12.011Z,15.53
2019-03-18T22:22:40.686Z,14.00
2019-03-18T22:25:10.900Z,14.73
2019-03-18T22:27:39.537Z,12.70
2019-03-18T22:30:10.970Z,13.30
2019-03-18T22:32:39.653Z,14.27
2019-03-18T22:35:12.277Z,15.00
2019-03-18T22:37:40.905Z,17.00
2019-03-18T22:40:12.494Z,17.83
2019-03-18T22:42:41.129Z,18.53
2019-03-18T22:45:11.678Z,19.20
2019-03-18T22:47:40.372Z,20.97
2019-03-18T22:50:13.129Z,20.77
2019-03-18T22:52:41.774Z,20.63
2019-03-18T22:55:14.442Z,21.77
2019-03-18T22:57:43.113Z,20.90
2019-03-18T23:00:27.778Z,20.70
2019-03-18T23:02:56.450Z,20.77
2019-03-18T23:05:25.138Z,22.23
2019-03-18T23:07:53.694Z,21.60
2019-03-18T23:10:22.376Z,23.43
2019-03-18T23:12:51.002Z,23.53
2019-03-18T23:15:19.668Z,23.67
2019-03-18T23:17:48.310Z,23.87
2019-03-18T23:20:17.046Z,24.27
2019-03-18T23:22:45.664Z,23.07
2019-03-18T23:25:14.332Z,22.13
2019-03-18T23:27:42.891Z,20.37
2019-03-18T23:30:13.340Z,21.53
2019-03-18T23:32:42.009Z,20.53
2019-03-18T23:35:10.897Z,21.13
2019-03-18T23:37:39.530Z,22.33
2019-03-18T23:40:10.818Z,22.53
2019-03-18T23:42:39.448Z,22.60
2019-03-18T23:45:09.088Z,22.17
2019-03-18T23:47:37.694Z,21.80
2019-03-18T23:50:11.447Z,21.77
2019-03-18T23:52:40.019Z,21.87
2019-03-18T23:55:18.346Z,21.27
2019-03-18T23:57:40.015Z,22.07
